createdAt,value
2023-04-16T00:01:15.310Z,6.45
2023-04-16T00:03:44.242Z,6.85
2023-04-16T00:06:13.295Z,6.28
2023-04-16T00:08:42.292Z,6.90
2023-04-16T00:11:11.257Z,8.57
2023-04-16T00:13:39.851Z,7.07
2023-04-16T00:16:08.950Z,6.90
2023-04-16T00:18:37.535Z,6.57
2023-04-16T00:21:06.757Z,6.72
2023-04-16T00:23:35.562Z,6.25
2023-04-16T00:26:04.316Z,6.13
2023-04-16T00:28:33.092Z,7.00
2023-04-16T00:31:02.668Z,6.18
2023-04-16T00:33:31.310Z,5.20
2023-04-16T00:36:00.778Z,4.88
2023-04-16T00:38:31.233Z,5.40
2023-04-16T00:41:00.014Z,5.13
2023-04-16T00:43:28.932Z,8.48
2023-04-16T00:45:58.347Z,6.82
2023-04-16T00:48:32.414Z,5.30
2023-04-16T00:51:05.154Z,4.88
2023-04-16T00:53:35.210Z,14.30
2023-04-16T00:56:05.957Z,5.18
2023-04-16T00:58:36.430Z,4.80
2023-04-16T01:01:05.216Z,5.00
2023-04-16T01:03:42.530Z,4.50
2023-04-16T01:06:12.315Z,4.68
2023-04-16T01:08:41.333Z,4.53
2023-04-16T01:11:12.033Z,4.70
2023-04-16T01:13:40.632Z,4.80
2023-04-16T01:16:10.757Z,4.75
2023-04-16T01:18:40.366Z,4.78
2023-04-16T01:21:09.260Z,5.47
2023-04-16T01:23:38.293Z,5.50
2023-04-16T01:26:07.254Z,5.40
2023-04-16T01:28:36.920Z,5.47
2023-04-16T01:31:05.610Z,5.68
2023-04-16T01:33:47.242Z,5.35
2023-04-16T01:36:16.175Z,5.43
2023-04-16T01:38:44.915Z,5.28
2023-04-16T01:41:13.559Z,4.68
2023-04-16T01:43:43.377Z,5.28
2023-04-16T01:46:22.093Z,5.10
2023-04-16T01:48:50.922Z,4.70
2023-04-16T01:51:20.713Z,5.70
2023-04-16T01:53:51.598Z,5.28
2023-04-16T01:56:20.360Z,5.40
2023-04-16T01:58:49.057Z,6.03
2023-04-16T02:01:19.874Z,5.97
2023-04-16T02:03:49.909Z,6.25
2023-04-16T02:06:19.168Z,6.68
2023-04-16T02:08:48.616Z,6.63
2023-04-16T02:11:17.636Z,6.82
2023-04-16T02:13:47.273Z,5.97
2023-04-16T02:16:17.887Z,6.50
2023-04-16T02:19:01.450Z,7.68
2023-04-16T02:21:33.382Z,7.20
2023-04-16T02:24:02.306Z,7.40
2023-04-16T02:26:32.429Z,7.72
2023-04-16T02:29:07.129Z,8.10
2023-04-16T02:31:44.221Z,8.18
2023-04-16T02:34:14.344Z,7.20
2023-04-16T02:36:43.686Z,7.25
2023-04-16T02:39:12.851Z,7.63
2023-04-16T02:41:41.700Z,6.82
2023-04-16T02:44:10.455Z,12.57
2023-04-16T02:46:39.128Z,15.68
2023-04-16T02:49:08.203Z,7.55
2023-04-16T02:51:37.129Z,8.07
2023-04-16T02:54:06.070Z,6.80
2023-04-16T02:56:34.951Z,5.60
2023-04-16T02:59:07.058Z,6.07
2023-04-16T03:01:36.514Z,4.72
2023-04-16T03:04:05.708Z,4.38
2023-04-16T03:06:34.602Z,3.78
2023-04-16T03:09:03.549Z,7.22
2023-04-16T03:11:32.535Z,7.63
2023-04-16T03:14:01.288Z,9.35
2023-04-16T03:16:30.118Z,5.60
2023-04-16T03:18:59.158Z,4.20
2023-04-16T03:21:28.744Z,6.35
2023-04-16T03:23:58.488Z,4.43
2023-04-16T03:26:27.251Z,5.50
2023-04-16T03:28:57.170Z,6.03
2023-04-16T03:31:26.947Z,5.00
2023-04-16T03:33:56.883Z,6.78
2023-04-16T03:36:27.833Z,4.72
2023-04-16T03:38:56.815Z,10.02
2023-04-16T03:41:28.629Z,3.38
2023-04-16T03:43:57.671Z,4.32
2023-04-16T03:46:26.648Z,4.00
2023-04-16T03:48:55.350Z,5.10
2023-04-16T03:51:24.230Z,4.22
2023-04-16T03:53:53.272Z,4.18
2023-04-16T03:56:22.276Z,6.60
2023-04-16T03:58:52.859Z,3.83
2023-04-16T04:01:21.865Z,3.72
2023-04-16T04:03:52.071Z,4.38
2023-04-16T04:06:21.160Z,3.97
2023-04-16T04:08:50.483Z,6.75
2023-04-16T04:11:20.046Z,6.35
2023-04-16T04:13:49.284Z,8.82
2023-04-16T04:16:18.136Z,8.35
2023-04-16T04:18:49.511Z,3.95
2023-04-16T04:21:18.187Z,5.78
2023-04-16T04:23:47.004Z,9.10
2023-04-16T04:26:16.234Z,2.97
2023-04-16T04:28:47.844Z,2.85
2023-04-16T04:31:19.154Z,3.65
2023-04-16T04:33:48.726Z,3.10
2023-04-16T04:36:18.244Z,5.43
2023-04-16T04:38:47.110Z,3.95
2023-04-16T04:41:16.932Z,3.95
2023-04-16T04:43:46.506Z,2.75
2023-04-16T04:46:15.345Z,2.85
2023-04-16T04:48:47.922Z,4.97
2023-04-16T04:51:18.485Z,5.30
2023-04-16T04:53:49.141Z,5.22
2023-04-16T04:56:20.273Z,4.07
2023-04-16T04:58:51.864Z,3.25
2023-04-16T05:01:21.918Z,3.55
2023-04-16T05:03:50.915Z,4.00
2023-04-16T05:06:20.170Z,4.53
2023-04-16T05:08:49.336Z,4.57
2023-04-16T05:11:18.471Z,2.58
2023-04-16T05:13:47.292Z,8.88
2023-04-16T05:16:16.552Z,2.20
2023-04-16T05:18:45.520Z,9.65
2023-04-16T05:21:14.984Z,4.32
2023-04-16T05:23:43.772Z,4.60
2023-04-16T05:26:12.503Z,5.47
2023-04-16T05:28:41.413Z,4.10
2023-04-16T05:31:10.269Z,2.28
2023-04-16T05:33:39.629Z,5.35
2023-04-16T05:36:11.381Z,11.85
2023-04-16T05:38:40.293Z,4.00
2023-04-16T05:41:09.997Z,6.93
2023-04-16T05:43:38.980Z,6.20
2023-04-16T05:46:07.887Z,5.05
2023-04-16T05:48:38.738Z,2.45
2023-04-16T05:51:07.644Z,4.47
2023-04-16T05:53:36.616Z,7.80
2023-04-16T05:56:05.581Z,5.47
2023-04-16T05:58:35.216Z,8.30
2023-04-16T06:01:04.494Z,7.32
2023-04-16T06:03:34.068Z,8.95
2023-04-16T06:06:03.486Z,14.57
2023-04-16T06:08:34.506Z,4.10
2023-04-16T06:11:10.139Z,2.13
2023-04-16T06:13:41.376Z,7.75
2023-04-16T06:16:10.232Z,11.35
2023-04-16T06:18:39.037Z,6.47
2023-04-16T06:21:07.996Z,5.53
2023-04-16T06:23:36.818Z,3.67
2023-04-16T06:26:06.400Z,3.10
2023-04-16T06:28:35.172Z,2.40
2023-04-16T06:31:04.385Z,7.40
2023-04-16T06:33:33.417Z,1.60
2023-04-16T06:36:02.349Z,4.53
2023-04-16T06:38:34.335Z,4.95
2023-04-16T06:41:03.086Z,7.97
2023-04-16T06:43:34.409Z,3.33
2023-04-16T06:46:03.258Z,6.53
2023-04-16T06:48:32.324Z,4.32
2023-04-16T06:51:02.141Z,13.38
2023-04-16T06:53:31.617Z,9.40
2023-04-16T06:56:03.159Z,11.15
2023-04-16T06:58:34.962Z,10.07
2023-04-16T07:01:07.319Z,3.78
2023-04-16T07:03:36.201Z,6.22
2023-04-16T07:06:05.094Z,2.53
2023-04-16T07:08:33.668Z,4.05
2023-04-16T07:11:02.481Z,4.38
2023-04-16T07:13:31.488Z,2.45
2023-04-16T07:16:00.334Z,2.20
2023-04-16T07:18:29.043Z,5.72
2023-04-16T07:20:58.239Z,3.30
2023-04-16T07:23:26.987Z,3.05
2023-04-16T07:25:56.043Z,3.80
2023-04-16T07:28:26.166Z,2.70
2023-04-16T07:30:54.838Z,3.00
2023-04-16T07:33:23.779Z,2.90
2023-04-16T07:35:52.528Z,4.05
2023-04-16T07:38:21.475Z,6.70
2023-04-16T07:40:50.238Z,2.55
2023-04-16T07:43:18.989Z,3.15
2023-04-16T07:45:47.756Z,2.00
2023-04-16T07:48:16.598Z,4.38
2023-04-16T07:50:45.477Z,6.47
2023-04-16T07:53:14.278Z,6.63
2023-04-16T07:55:42.977Z,4.97
2023-04-16T07:58:11.966Z,2.50
2023-04-16T08:00:41.121Z,6.38
2023-04-16T08:03:10.174Z,3.20
2023-04-16T08:05:39.160Z,4.05
2023-04-16T08:08:07.799Z,5.30
2023-04-16T08:10:36.767Z,3.53
2023-04-16T08:13:05.718Z,8.98
2023-04-16T08:15:34.368Z,3.40
2023-04-16T08:18:03.178Z,3.00
2023-04-16T08:20:32.220Z,20.00
2023-04-16T08:23:01.147Z,3.35
2023-04-16T08:25:30.010Z,3.75
2023-04-16T08:27:58.639Z,2.50
2023-04-16T08:30:27.493Z,3.85
2023-04-16T08:32:56.784Z,2.85
2023-04-16T08:35:25.545Z,3.72
2023-04-16T08:37:55.132Z,5.28
2023-04-16T08:40:26.403Z,6.55
2023-04-16T08:42:59.451Z,4.05
2023-04-16T08:45:28.639Z,2.95
2023-04-16T08:47:58.066Z,3.70
2023-04-16T08:50:27.814Z,2.13
2023-04-16T08:53:01.722Z,2.70
2023-04-16T08:55:50.319Z,2.60
2023-04-16T08:58:20.380Z,2.08
2023-04-16T09:00:50.181Z,2.10
2023-04-16T09:03:22.505Z,4.45
2023-04-16T09:05:51.942Z,2.38
2023-04-16T09:08:21.988Z,2.40
2023-04-16T09:10:51.941Z,1.60
2023-04-16T09:13:21.517Z,10.02
2023-04-16T09:15:57.858Z,1.40
2023-04-16T09:18:26.986Z,2.00
2023-04-16T09:20:57.065Z,1.48
2023-04-16T09:23:25.979Z,2.78
2023-04-16T09:25:55.070Z,2.90
2023-04-16T09:28:49.697Z,4.40
2023-04-16T09:31:20.168Z,2.75
2023-04-16T09:34:06.457Z,3.00
2023-04-16T09:36:36.624Z,2.58
2023-04-16T09:39:05.541Z,1.85
2023-04-16T09:41:40.276Z,2.10
2023-04-16T09:44:09.041Z,2.00
2023-04-16T09:46:42.398Z,2.45
2023-04-16T09:49:16.155Z,2.05
2023-04-16T09:51:47.421Z,3.80
2023-04-16T09:54:16.769Z,3.85
2023-04-16T09:56:47.799Z,3.00
2023-04-16T09:59:23.886Z,4.22
2023-04-16T10:02:07.709Z,4.95
2023-04-16T10:04:51.630Z,2.47
2023-04-16T10:07:21.906Z,6.35
2023-04-16T10:09:54.184Z,3.50
2023-04-16T10:12:23.305Z,8.68
2023-04-16T10:14:52.024Z,6.35
2023-04-16T10:17:22.403Z,4.00
2023-04-16T10:19:52.504Z,9.45
2023-04-16T10:22:24.025Z,4.47
2023-04-16T10:24:54.304Z,8.50
2023-04-16T10:27:23.589Z,3.60
2023-04-16T10:29:52.650Z,4.68
2023-04-16T10:32:22.609Z,1.70
2023-04-16T10:34:51.880Z,5.93
2023-04-16T10:37:20.582Z,1.80
2023-04-16T10:39:50.571Z,1.95
2023-04-16T10:42:19.198Z,2.20
2023-04-16T10:44:47.981Z,4.13
2023-04-16T10:47:16.960Z,1.77
2023-04-16T10:49:48.895Z,1.90
2023-04-16T10:52:18.086Z,3.35
2023-04-16T10:54:50.979Z,5.57
2023-04-16T10:57:21.405Z,2.95
2023-04-16T10:59:50.460Z,2.50
2023-04-16T11:02:19.993Z,5.38
2023-04-16T11:04:50.284Z,3.95
2023-04-16T11:07:21.879Z,3.40
2023-04-16T11:09:55.096Z,2.88
2023-04-16T11:12:43.760Z,2.75
2023-04-16T11:15:15.042Z,4.40
2023-04-16T11:17:53.708Z,5.18
2023-04-16T11:20:30.483Z,1.90
2023-04-16T11:22:59.817Z,3.08
2023-04-16T11:25:30.748Z,2.97
2023-04-16T11:28:00.019Z,2.50
2023-04-16T11:30:37.061Z,4.05
2023-04-16T11:33:08.694Z,4.68
2023-04-16T11:35:37.818Z,1.90
2023-04-16T11:38:10.974Z,3.10
2023-04-16T11:40:39.844Z,5.25
2023-04-16T11:43:16.880Z,3.58
2023-04-16T11:46:16.668Z,1.92
2023-04-16T11:48:54.709Z,2.30
2023-04-16T11:51:24.262Z,2.63
2023-04-16T11:53:54.302Z,2.30
2023-04-16T11:56:29.136Z,2.47
2023-04-16T12:01:49.837Z,4.28
2023-04-16T12:04:21.624Z,2.30
2023-04-16T12:07:06.693Z,2.50
2023-04-16T12:09:39.520Z,4.20
2023-04-16T12:12:32.140Z,3.90
2023-04-16T12:15:04.472Z,2.38
2023-04-16T12:17:34.730Z,2.00
2023-04-16T12:20:09.043Z,2.97
2023-04-16T12:22:42.263Z,3.20
2023-04-16T12:25:16.288Z,9.40
2023-04-16T12:27:56.720Z,4.30
2023-04-16T12:30:27.597Z,3.10
2023-04-16T12:33:19.164Z,3.15
2023-04-16T12:35:48.320Z,4.97
2023-04-16T12:38:17.605Z,7.80
2023-04-16T12:40:46.636Z,5.50
2023-04-16T12:43:15.468Z,6.75
2023-04-16T12:45:44.591Z,5.57
2023-04-16T12:48:13.365Z,6.97
2023-04-16T12:50:45.083Z,8.52
2023-04-16T12:53:13.877Z,12.27
2023-04-16T12:55:43.022Z,6.07
2023-04-16T12:58:12.599Z,7.53
2023-04-16T13:00:41.503Z,4.05
2023-04-16T13:03:10.479Z,5.22
2023-04-16T13:05:39.502Z,6.70
2023-04-16T13:08:08.350Z,4.95
2023-04-16T13:10:37.582Z,3.78
2023-04-16T13:13:06.837Z,4.43
2023-04-16T13:15:35.737Z,2.67
2023-04-16T13:18:04.665Z,2.80
2023-04-16T13:20:34.598Z,3.90
2023-04-16T13:23:05.598Z,15.00
2023-04-16T13:25:34.448Z,11.35
2023-04-16T13:28:03.282Z,7.90
2023-04-16T13:30:32.601Z,6.60
2023-04-16T13:33:01.761Z,9.27
2023-04-16T13:35:31.319Z,7.68
2023-04-16T13:38:00.163Z,5.45
2023-04-16T13:40:29.138Z,3.10
2023-04-16T13:42:58.151Z,3.42
2023-04-16T13:45:28.657Z,5.40
2023-04-16T13:47:57.480Z,4.32
2023-04-16T13:50:26.731Z,7.45
2023-04-16T13:52:58.041Z,9.63
2023-04-16T13:55:27.041Z,6.05
2023-04-16T13:57:57.042Z,8.77
2023-04-16T14:00:28.158Z,18.63
2023-04-16T14:02:57.312Z,22.48
2023-04-16T14:05:27.323Z,19.98
2023-04-16T14:07:56.353Z,14.13
2023-04-16T14:10:25.237Z,14.57
2023-04-16T14:12:54.077Z,11.05
2023-04-16T14:15:22.916Z,6.90
2023-04-16T14:17:51.700Z,7.70
2023-04-16T14:20:20.630Z,11.00
2023-04-16T14:22:49.489Z,16.85
2023-04-16T14:25:18.637Z,22.25
2023-04-16T14:27:47.360Z,25.30
2023-04-16T14:30:17.417Z,27.05
2023-04-16T14:32:46.552Z,19.83
2023-04-16T14:35:15.362Z,19.20
2023-04-16T14:37:44.427Z,15.45
2023-04-16T14:40:13.767Z,18.88
2023-04-16T14:42:42.678Z,18.48
2023-04-16T14:45:11.870Z,18.58
2023-04-16T14:47:46.448Z,13.88
2023-04-16T14:50:16.287Z,13.65
2023-04-16T14:52:45.157Z,9.98
2023-04-16T14:55:14.022Z,12.77
2023-04-16T14:57:43.028Z,13.00
2023-04-16T15:00:12.802Z,11.05
2023-04-16T15:02:41.971Z,14.05
2023-04-16T15:05:11.358Z,19.00
2023-04-16T15:07:40.419Z,17.60
2023-04-16T15:10:10.988Z,22.65
2023-04-16T15:12:40.322Z,18.08
2023-04-16T15:15:10.260Z,17.30
2023-04-16T15:17:41.694Z,20.15
2023-04-16T15:20:14.577Z,21.88
2023-04-16T15:22:44.010Z,16.92
2023-04-16T15:25:13.170Z,20.48
2023-04-16T15:27:41.884Z,17.40
2023-04-16T15:30:13.371Z,16.23
2023-04-16T15:32:42.157Z,17.40
2023-04-16T15:35:11.577Z,18.27
2023-04-16T15:37:40.948Z,20.88
2023-04-16T15:40:09.943Z,20.20
2023-04-16T15:42:38.868Z,19.90
2023-04-16T15:45:07.764Z,125.07
2023-04-16T15:47:37.988Z,62.30
2023-04-16T15:50:09.219Z,40.45
2023-04-16T15:52:39.508Z,23.70
2023-04-16T15:55:08.586Z,24.00
2023-04-16T15:57:37.657Z,36.60
2023-04-16T16:00:17.964Z,20.63
2023-04-16T16:02:48.592Z,19.60
2023-04-16T16:05:18.187Z,17.80
2023-04-16T16:07:47.215Z,16.40
2023-04-16T16:10:16.631Z,17.08
2023-04-16T16:12:45.546Z,20.10
2023-04-16T16:15:14.389Z,24.85
2023-04-16T16:17:43.215Z,20.35
2023-04-16T16:20:13.550Z,125.40
2023-04-16T16:22:45.934Z,38.88
2023-04-16T16:25:15.795Z,25.63
2023-04-16T16:27:45.940Z,59.80
2023-04-16T16:30:14.847Z,20.50
2023-04-16T16:32:46.761Z,42.20
2023-04-16T16:35:16.105Z,30.83
2023-04-16T16:37:44.913Z,39.80
2023-04-16T16:40:13.597Z,108.22
2023-04-16T16:42:42.425Z,20.45
2023-04-16T16:45:11.844Z,42.38
2023-04-16T16:47:40.721Z,36.95
2023-04-16T16:50:12.107Z,19.90
2023-04-16T16:52:41.015Z,35.92
2023-04-16T16:55:11.660Z,78.90
2023-04-16T16:57:40.762Z,73.18
2023-04-16T17:00:14.846Z,112.07
2023-04-16T17:02:44.154Z,37.47
2023-04-16T17:05:13.808Z,50.80
2023-04-16T17:07:42.569Z,70.35
2023-04-16T17:10:13.894Z,102.53
2023-04-16T17:12:42.865Z,39.45
2023-04-16T17:15:12.271Z,35.85
2023-04-16T17:17:41.274Z,29.45
2023-04-16T17:20:11.630Z,29.85
2023-04-16T17:22:41.207Z,29.92
2023-04-16T17:25:10.430Z,29.38
2023-04-16T17:27:42.446Z,28.40
2023-04-16T17:30:11.642Z,27.88
2023-04-16T17:32:40.497Z,38.15
2023-04-16T17:35:10.180Z,60.75
2023-04-16T17:37:39.113Z,34.28
2023-04-16T17:40:08.743Z,31.15
2023-04-16T17:42:37.966Z,46.25
2023-04-16T17:45:07.254Z,43.92
2023-04-16T17:47:37.022Z,33.30
2023-04-16T17:50:06.384Z,29.33
2023-04-16T17:52:35.214Z,39.83
2023-04-16T17:55:07.221Z,28.85
2023-04-16T17:57:36.337Z,27.05
2023-04-16T18:00:15.059Z,27.40
2023-04-16T18:02:44.374Z,24.83
2023-04-16T18:05:13.506Z,26.35
2023-04-16T18:07:42.324Z,24.02
2023-04-16T18:10:11.428Z,21.45
2023-04-16T18:12:40.159Z,20.45
2023-04-16T18:15:09.591Z,23.15
2023-04-16T18:17:38.892Z,23.33
2023-04-16T18:20:10.117Z,24.35
2023-04-16T18:22:39.089Z,25.33
2023-04-16T18:25:08.517Z,26.98
2023-04-16T18:27:37.306Z,30.55
2023-04-16T18:30:19.594Z,31.83
2023-04-16T18:33:16.502Z,35.85
2023-04-16T18:35:41.397Z,34.50
2023-04-16T18:38:14.307Z,37.28
2023-04-16T18:40:43.078Z,42.72
2023-04-16T18:43:11.798Z,50.42
2023-04-16T18:45:40.436Z,57.47
2023-04-16T18:48:09.135Z,51.40
2023-04-16T18:50:38.093Z,52.80
2023-04-16T18:53:06.840Z,49.17
2023-04-16T18:55:35.784Z,49.05
2023-04-16T18:58:04.495Z,51.83
2023-04-16T19:00:33.493Z,48.35
2023-04-16T19:03:07.082Z,46.72
2023-04-16T19:05:36.491Z,47.55
2023-04-16T19:08:05.434Z,49.50
2023-04-16T19:10:34.663Z,48.72
2023-04-16T19:13:03.737Z,48.60
2023-04-16T19:15:34.409Z,48.40
2023-04-16T19:18:03.678Z,44.60
2023-04-16T19:20:35.677Z,45.22
2023-04-16T19:23:09.718Z,43.05
2023-04-16T19:25:38.543Z,41.97
2023-04-16T19:28:07.435Z,40.95
2023-04-16T19:30:36.153Z,40.97
2023-04-16T19:33:04.964Z,39.45
2023-04-16T19:35:35.394Z,39.83
2023-04-16T19:38:03.875Z,40.35
2023-04-16T19:40:32.697Z,40.10
2023-04-16T19:43:01.640Z,38.08
2023-04-16T19:45:30.709Z,32.78
2023-04-16T19:47:59.612Z,32.67
2023-04-16T19:50:28.295Z,31.83
2023-04-16T19:52:56.934Z,26.67
2023-04-16T19:55:25.496Z,28.42
2023-04-16T19:57:54.195Z,24.80
2023-04-16T20:00:23.501Z,24.33
2023-04-16T20:02:52.696Z,20.80
2023-04-16T20:05:21.474Z,10.20
2023-04-16T20:07:52.543Z,6.13
2023-04-16T20:10:21.784Z,7.68
2023-04-16T20:12:51.512Z,26.70
2023-04-16T20:15:20.833Z,7.03
2023-04-16T20:17:49.623Z,5.90
2023-04-16T20:20:18.531Z,6.38
2023-04-16T20:22:47.519Z,5.28
2023-04-16T20:25:19.738Z,3.75
2023-04-16T20:27:48.754Z,3.20
2023-04-16T20:30:17.404Z,7.82
2023-04-16T20:32:46.089Z,2.63
2023-04-16T20:35:14.952Z,1.90
2023-04-16T20:37:44.033Z,6.38
2023-04-16T20:40:14.635Z,1.83
2023-04-16T20:42:46.804Z,2.50
2023-04-16T20:45:18.685Z,1.83
2023-04-16T20:47:47.626Z,2.78
2023-04-16T20:50:16.564Z,1.67
2023-04-16T20:52:47.939Z,2.35
2023-04-16T20:55:16.854Z,2.10
2023-04-16T20:57:45.570Z,1.50
2023-04-16T21:00:16.684Z,1.70
2023-04-16T21:02:45.673Z,1.80
2023-04-16T21:05:15.242Z,1.80
2023-04-16T21:07:44.329Z,2.13
2023-04-16T21:10:13.056Z,1.70
2023-04-16T21:12:41.766Z,1.60
2023-04-16T21:15:10.667Z,1.73
2023-04-16T21:17:39.303Z,2.17
2023-04-16T21:20:11.507Z,2.00
2023-04-16T21:22:40.190Z,2.35
2023-04-16T21:25:09.509Z,2.25
2023-04-16T21:27:40.701Z,2.40
2023-04-16T21:30:09.980Z,2.25
2023-04-16T21:32:39.057Z,2.55
2023-04-16T21:35:08.064Z,2.30
2023-04-16T21:37:36.756Z,2.40
2023-04-16T21:40:06.752Z,2.80
2023-04-16T21:42:42.847Z,3.58
2023-04-16T21:45:11.754Z,2.40
2023-04-16T21:47:40.547Z,3.40
2023-04-16T21:50:09.535Z,2.85
2023-04-16T21:52:46.809Z,2.20
2023-04-16T21:55:15.549Z,2.35
2023-04-16T21:57:44.296Z,2.53
2023-04-16T22:00:14.646Z,2.58
2023-04-16T22:02:43.581Z,2.35
2023-04-16T22:05:12.909Z,2.10
2023-04-16T22:07:42.322Z,1.98
2023-04-16T22:10:13.543Z,2.17
2023-04-16T22:12:46.387Z,2.40
2023-04-16T22:15:15.625Z,2.40
2023-04-16T22:17:44.841Z,2.00
2023-04-16T22:20:13.998Z,2.30
2023-04-16T22:22:43.381Z,2.10
2023-04-16T22:25:12.461Z,2.10
2023-04-16T22:27:41.333Z,3.38
2023-04-16T22:30:10.488Z,2.83
2023-04-16T22:32:39.093Z,2.17
2023-04-16T22:35:08.553Z,2.47
2023-04-16T22:37:37.728Z,2.47
2023-04-16T22:40:09.188Z,2.08
2023-04-16T22:42:38.664Z,2.33
2023-04-16T22:45:08.076Z,2.38
2023-04-16T22:47:40.004Z,2.58
2023-04-16T22:50:09.334Z,2.85
2023-04-16T22:52:38.148Z,2.30
2023-04-16T22:55:09.912Z,2.47
2023-04-16T22:57:38.406Z,2.65
2023-04-16T23:00:10.603Z,2.17
2023-04-16T23:02:39.250Z,2.50
2023-04-16T23:05:08.495Z,3.00
2023-04-16T23:07:37.139Z,3.50
2023-04-16T23:10:06.330Z,2.70
2023-04-16T23:12:37.893Z,2.75
2023-04-16T23:15:07.226Z,2.70
2023-04-16T23:17:36.042Z,3.20
2023-04-16T23:20:06.177Z,3.30
2023-04-16T23:22:34.934Z,2.78
2023-04-16T23:25:03.460Z,3.80
2023-04-16T23:27:33.245Z,26.60
2023-04-16T23:30:02.086Z,18.95
2023-04-16T23:32:30.814Z,10.57
2023-04-16T23:34:59.516Z,9.10
2023-04-16T23:37:28.271Z,11.48
2023-04-16T23:39:56.964Z,10.25
2023-04-16T23:42:25.614Z,8.00
2023-04-16T23:44:54.293Z,13.10
2023-04-16T23:47:22.850Z,8.57
2023-04-16T23:49:51.817Z,14.35
2023-04-16T23:52:20.381Z,12.77
2023-04-16T23:54:49.109Z,9.57
2023-04-16T23:57:17.821Z,8.07
2023-04-16T23:59:46.459Z,6.03
